sensor_id;sensor_type;location;lat;lon;timestamp;temperature;humidity
49579;DHT22;35483;50.828;3.228;2022-12-29T00:01:18;12.50;99.90
49579;DHT22;35483;50.828;3.228;2022-12-29T00:03:47;12.50;99.90
49579;DHT22;35483;50.828;3.228;2022-12-29T00:06:13;12.50;99.90
49579;DHT22;35483;50.828;3.228;2022-12-29T00:08:38;12.50;99.90
49579;DHT22;35483;50.828;3.228;2022-12-29T00:11:12;12.40;99.90
49579;DHT22;35483;50.828;3.228;2022-12-29T00:13:39;12.40;99.90
49579;DHT22;35483;50.828;3.228;2022-12-29T00:16:23;12.40;99.90
49579;DHT22;35483;50.828;3.228;2022-12-29T00:18:49;12.40;99.90
49579;DHT22;35483;50.828;3.228;2022-12-29T00:21:17;12.40;99.90
49579;DHT22;35483;50.828;3.228;2022-12-29T00:24:01;12.50;99.90
49579;DHT22;35483;50.828;3.228;2022-12-29T00:26:53;12.50;99.90
49579;DHT22;35483;50.828;3.228;2022-12-29T00:29:37;12.50;99.90
49579;DHT22;35483;50.828;3.228;2022-12-29T00:32:21;12.50;99.90
49579;DHT22;35483;50.828;3.228;2022-12-29T00:35:09;12.40;99.90
49579;DHT22;35483;50.828;3.228;2022-12-29T00:37:43;12.40;99.90
49579;DHT22;35483;50.828;3.228;2022-12-29T00:40:29;12.50;99.90
49579;DHT22;35483;50.828;3.228;2022-12-29T00:43:13;12.50;99.90
49579;DHT22;35483;50.828;3.228;2022-12-29T00:45:57;12.50;99.90
49579;DHT22;35483;50.828;3.228;2022-12-29T00:48:22;12.50;99.90
49579;DHT22;35483;50.828;3.228;2022-12-29T00:51:07;12.50;99.90
49579;DHT22;35483;50.828;3.228;2022-12-29T00:53:33;12.50;99.90
49579;DHT22;35483;50.828;3.228;2022-12-29T00:55:59;12.50;99.90
49579;DHT22;35483;50.828;3.228;2022-12-29T00:58:27;12.60;99.90
49579;DHT22;35483;50.828;3.228;2022-12-29T01:01:03;12.60;99.90
49579;DHT22;35483;50.828;3.228;2022-12-29T01:03:30;12.50;99.90
49579;DHT22;35483;50.828;3.228;2022-12-29T01:05:56;12.50;99.90
49579;DHT22;35483;50.828;3.228;2022-12-29T01:08:21;12.60;99.90
49579;DHT22;35483;50.828;3.228;2022-12-29T01:11:07;12.60;99.90
49579;DHT22;35483;50.828;3.228;2022-12-29T01:13:33;12.60;99.90
49579;DHT22;35483;50.828;3.228;2022-12-29T01:15:59;12.50;99.90
49579;DHT22;35483;50.828;3.228;2022-12-29T01:18:26;12.50;99.90
49579;DHT22;35483;50.828;3.228;2022-12-29T01:21:00;12.60;99.90
49579;DHT22;35483;50.828;3.228;2022-12-29T01:23:27;12.60;99.90
49579;DHT22;35483;50.828;3.228;2022-12-29T01:25:52;12.60;99.90
49579;DHT22;35483;50.828;3.228;2022-12-29T01:28:18;12.60;99.90
49579;DHT22;35483;50.828;3.228;2022-12-29T01:30:43;12.60;99.90
49579;DHT22;35483;50.828;3.228;2022-12-29T01:33:09;12.60;99.90
49579;DHT22;35483;50.828;3.228;2022-12-29T01:35:35;12.50;99.90
49579;DHT22;35483;50.828;3.228;2022-12-29T01:38:01;12.50;99.90
49579;DHT22;35483;50.828;3.228;2022-12-29T01:40:27;12.50;99.90
49579;DHT22;35483;50.828;3.228;2022-12-29T01:42:53;12.50;99.90
49579;DHT22;35483;50.828;3.228;2022-12-29T01:45:20;12.40;99.90
49579;DHT22;35483;50.828;3.228;2022-12-29T01:47:52;12.40;99.90
49579;DHT22;35483;50.828;3.228;2022-12-29T01:50:32;12.40;99.90
49579;DHT22;35483;50.828;3.228;2022-12-29T01:53:19;12.50;99.90
49579;DHT22;35483;50.828;3.228;2022-12-29T01:55:52;12.50;99.90
49579;DHT22;35483;50.828;3.228;2022-12-29T01:58:20;12.40;99.90
49579;DHT22;35483;50.828;3.228;2022-12-29T02:00:48;12.40;99.90
49579;DHT22;35483;50.828;3.228;2022-12-29T02:03:16;12.40;99.90
49579;DHT22;35483;50.828;3.228;2022-12-29T02:05:53;12.40;99.90
49579;DHT22;35483;50.828;3.228;2022-12-29T02:08:24;12.40;99.90
49579;DHT22;35483;50.828;3.228;2022-12-29T02:10:51;12.40;99.90
49579;DHT22;35483;50.828;3.228;2022-12-29T02:13:17;12.30;99.90
49579;DHT22;35483;50.828;3.228;2022-12-29T02:19:11;12.40;99.90
49579;DHT22;35483;50.828;3.228;2022-12-29T02:33:41;12.00;99.90
49579;DHT22;35483;50.828;3.228;2022-12-29T02:39:21;11.90;99.90
49579;DHT22;35483;50.828;3.228;2022-12-29T02:42:10;11.80;99.90
49579;DHT22;35483;50.828;3.228;2022-12-29T02:45:04;11.80;99.90
49579;DHT22;35483;50.828;3.228;2022-12-29T02:47:42;11.80;99.90
49579;DHT22;35483;50.828;3.228;2022-12-29T02:52:50;11.70;99.90
49579;DHT22;35483;50.828;3.228;2022-12-29T02:55:17;11.70;99.90
49579;DHT22;35483;50.828;3.228;2022-12-29T02:57:42;11.70;99.90
49579;DHT22;35483;50.828;3.228;2022-12-29T03:00:11;11.80;99.90
49579;DHT22;35483;50.828;3.228;2022-12-29T03:05:35;11.80;99.90
49579;DHT22;35483;50.828;3.228;2022-12-29T03:11:07;11.80;99.90
49579;DHT22;35483;50.828;3.228;2022-12-29T03:13:59;11.80;99.90
49579;DHT22;35483;50.828;3.228;2022-12-29T03:16:53;11.70;99.90
49579;DHT22;35483;50.828;3.228;2022-12-29T03:19:36;11.70;99.90
49579;DHT22;35483;50.828;3.228;2022-12-29T03:22:12;11.50;99.90
49579;DHT22;35483;50.828;3.228;2022-12-29T03:24:56;11.50;99.90
49579;DHT22;35483;50.828;3.228;2022-12-29T03:27:32;11.40;99.90
49579;DHT22;35483;50.828;3.228;2022-12-29T03:30:03;11.30;99.90
49579;DHT22;35483;50.828;3.228;2022-12-29T03:32:33;11.30;99.90
49579;DHT22;35483;50.828;3.228;2022-12-29T03:35:02;11.20;99.90
49579;DHT22;35483;50.828;3.228;2022-12-29T03:37:34;11.10;99.90
49579;DHT22;35483;50.828;3.228;2022-12-29T03:40:01;11.20;99.90
49579;DHT22;35483;50.828;3.228;2022-12-29T03:42:29;11.20;99.90
49579;DHT22;35483;50.828;3.228;2022-12-29T03:44:56;11.30;99.90
49579;DHT22;35483;50.828;3.228;2022-12-29T03:47:23;11.40;99.90
49579;DHT22;35483;50.828;3.228;2022-12-29T03:49:50;11.50;99.90
49579;DHT22;35483;50.828;3.228;2022-12-29T03:52:15;11.50;99.90
49579;DHT22;35483;50.828;3.228;2022-12-29T03:54:41;11.60;99.90
49579;DHT22;35483;50.828;3.228;2022-12-29T03:57:08;11.60;99.90
49579;DHT22;35483;50.828;3.228;2022-12-29T03:59:34;11.60;99.90
49579;DHT22;35483;50.828;3.228;2022-12-29T04:01:59;11.70;99.90
49579;DHT22;35483;50.828;3.228;2022-12-29T04:04:25;11.70;99.90
49579;DHT22;35483;50.828;3.228;2022-12-29T04:06:51;11.70;99.90
49579;DHT22;35483;50.828;3.228;2022-12-29T04:09:16;11.70;99.90
49579;DHT22;35483;50.828;3.228;2022-12-29T04:11:43;11.70;99.90
49579;DHT22;35483;50.828;3.228;2022-12-29T04:14:09;11.80;99.90
49579;DHT22;35483;50.828;3.228;2022-12-29T04:16:35;11.80;99.90
49579;DHT22;35483;50.828;3.228;2022-12-29T04:19:07;11.80;99.90
49579;DHT22;35483;50.828;3.228;2022-12-29T04:21:33;11.70;99.90
49579;DHT22;35483;50.828;3.228;2022-12-29T04:23:59;11.70;99.90
49579;DHT22;35483;50.828;3.228;2022-12-29T04:26:25;11.70;99.90
49579;DHT22;35483;50.828;3.228;2022-12-29T04:28:51;11.60;99.90
49579;DHT22;35483;50.828;3.228;2022-12-29T04:31:17;11.50;99.90
49579;DHT22;35483;50.828;3.228;2022-12-29T04:33:42;11.50;99.90
49579;DHT22;35483;50.828;3.228;2022-12-29T04:36:09;11.40;99.90
49579;DHT22;35483;50.828;3.228;2022-12-29T04:38:35;11.40;99.90
49579;DHT22;35483;50.828;3.228;2022-12-29T04:41:02;11.50;99.90
49579;DHT22;35483;50.828;3.228;2022-12-29T04:43:28;11.50;99.90
49579;DHT22;35483;50.828;3.228;2022-12-29T04:45:54;11.50;99.90
49579;DHT22;35483;50.828;3.228;2022-12-29T04:48:20;11.60;99.90
49579;DHT22;35483;50.828;3.228;2022-12-29T04:50:48;11.60;99.90
49579;DHT22;35483;50.828;3.228;2022-12-29T04:53:15;11.60;99.90
49579;DHT22;35483;50.828;3.228;2022-12-29T04:55:41;11.60;99.90
49579;DHT22;35483;50.828;3.228;2022-12-29T04:58:06;11.60;99.90
49579;DHT22;35483;50.828;3.228;2022-12-29T05:00:33;11.60;99.90
49579;DHT22;35483;50.828;3.228;2022-12-29T05:02:58;11.70;99.90
49579;DHT22;35483;50.828;3.228;2022-12-29T05:05:24;11.60;99.90
49579;DHT22;35483;50.828;3.228;2022-12-29T05:07:50;11.70;99.90
49579;DHT22;35483;50.828;3.228;2022-12-29T05:10:16;11.70;99.90
49579;DHT22;35483;50.828;3.228;2022-12-29T05:12:43;11.60;99.90
49579;DHT22;35483;50.828;3.228;2022-12-29T05:15:10;11.50;99.90
49579;DHT22;35483;50.828;3.228;2022-12-29T05:17:37;11.50;99.90
49579;DHT22;35483;50.828;3.228;2022-12-29T05:20:04;11.60;99.90
49579;DHT22;35483;50.828;3.228;2022-12-29T05:22:30;11.60;99.90
49579;DHT22;35483;50.828;3.228;2022-12-29T05:24:56;11.70;99.90
49579;DHT22;35483;50.828;3.228;2022-12-29T05:27:22;11.60;99.90
49579;DHT22;35483;50.828;3.228;2022-12-29T05:29:47;11.60;99.90
49579;DHT22;35483;50.828;3.228;2022-12-29T05:32:13;11.60;99.90
49579;DHT22;35483;50.828;3.228;2022-12-29T05:34:39;11.60;99.90
49579;DHT22;35483;50.828;3.228;2022-12-29T05:37:04;11.60;99.90
49579;DHT22;35483;50.828;3.228;2022-12-29T05:39:30;11.60;99.90
49579;DHT22;35483;50.828;3.228;2022-12-29T05:41:56;11.70;99.90
49579;DHT22;35483;50.828;3.228;2022-12-29T05:44:21;11.70;99.90
49579;DHT22;35483;50.828;3.228;2022-12-29T05:46:47;11.70;99.90
49579;DHT22;35483;50.828;3.228;2022-12-29T05:49:13;11.70;99.90
49579;DHT22;35483;50.828;3.228;2022-12-29T05:51:39;11.70;99.90
49579;DHT22;35483;50.828;3.228;2022-12-29T05:54:05;11.70;99.90
49579;DHT22;35483;50.828;3.228;2022-12-29T05:56:31;11.70;99.90
49579;DHT22;35483;50.828;3.228;2022-12-29T05:58:56;11.70;99.90
49579;DHT22;35483;50.828;3.228;2022-12-29T06:01:22;11.70;99.90
49579;DHT22;35483;50.828;3.228;2022-12-29T06:03:48;11.70;99.90
49579;DHT22;35483;50.828;3.228;2022-12-29T06:06:14;11.70;99.90
49579;DHT22;35483;50.828;3.228;2022-12-29T06:08:39;11.70;99.90
49579;DHT22;35483;50.828;3.228;2022-12-29T06:11:06;11.70;99.90
49579;DHT22;35483;50.828;3.228;2022-12-29T06:13:32;11.70;99.90
49579;DHT22;35483;50.828;3.228;2022-12-29T06:15:57;11.80;99.90
49579;DHT22;35483;50.828;3.228;2022-12-29T06:18:23;11.70;99.90
49579;DHT22;35483;50.828;3.228;2022-12-29T06:20:49;11.70;99.90
49579;DHT22;35483;50.828;3.228;2022-12-29T06:23:14;11.70;99.90
49579;DHT22;35483;50.828;3.228;2022-12-29T06:25:40;11.70;99.90
49579;DHT22;35483;50.828;3.228;2022-12-29T06:28:06;11.80;99.90
49579;DHT22;35483;50.828;3.228;2022-12-29T06:30:32;11.70;99.90
49579;DHT22;35483;50.828;3.228;2022-12-29T06:32:58;11.70;99.90
49579;DHT22;35483;50.828;3.228;2022-12-29T06:35:24;11.70;99.90
49579;DHT22;35483;50.828;3.228;2022-12-29T06:37:50;11.70;99.90
49579;DHT22;35483;50.828;3.228;2022-12-29T06:40:16;11.70;99.90
49579;DHT22;35483;50.828;3.228;2022-12-29T06:42:41;11.70;99.90
49579;DHT22;35483;50.828;3.228;2022-12-29T06:45:07;11.70;99.90
49579;DHT22;35483;50.828;3.228;2022-12-29T06:47:34;11.70;99.90
49579;DHT22;35483;50.828;3.228;2022-12-29T06:50:00;11.70;99.90
49579;DHT22;35483;50.828;3.228;2022-12-29T06:52:26;11.70;99.90
49579;DHT22;35483;50.828;3.228;2022-12-29T06:54:54;11.60;99.90
49579;DHT22;35483;50.828;3.228;2022-12-29T06:57:19;11.70;99.90
49579;DHT22;35483;50.828;3.228;2022-12-29T06:59:45;11.70;99.90
49579;DHT22;35483;50.828;3.228;2022-12-29T07:02:11;11.70;99.90
49579;DHT22;35483;50.828;3.228;2022-12-29T07:04:37;11.70;99.90
49579;DHT22;35483;50.828;3.228;2022-12-29T07:07:03;11.60;99.90
49579;DHT22;35483;50.828;3.228;2022-12-29T07:09:28;11.70;99.90
49579;DHT22;35483;50.828;3.228;2022-12-29T07:11:54;11.60;99.90
49579;DHT22;35483;50.828;3.228;2022-12-29T07:14:20;11.60;99.90
49579;DHT22;35483;50.828;3.228;2022-12-29T07:16:45;11.70;99.90
49579;DHT22;35483;50.828;3.228;2022-12-29T07:19:11;11.60;99.90
49579;DHT22;35483;50.828;3.228;2022-12-29T07:21:37;11.70;99.90
49579;DHT22;35483;50.828;3.228;2022-12-29T07:24:02;11.70;99.90
49579;DHT22;35483;50.828;3.228;2022-12-29T07:26:28;11.70;99.90
49579;DHT22;35483;50.828;3.228;2022-12-29T07:28:54;11.70;99.90
49579;DHT22;35483;50.828;3.228;2022-12-29T07:31:23;11.70;99.90
49579;DHT22;35483;50.828;3.228;2022-12-29T07:33:49;11.70;99.90
49579;DHT22;35483;50.828;3.228;2022-12-29T07:36:15;11.70;99.90
49579;DHT22;35483;50.828;3.228;2022-12-29T07:38:42;11.70;99.90
49579;DHT22;35483;50.828;3.228;2022-12-29T07:41:08;11.70;99.90
49579;DHT22;35483;50.828;3.228;2022-12-29T07:43:35;11.70;99.90
49579;DHT22;35483;50.828;3.228;2022-12-29T07:46:01;11.70;99.90
49579;DHT22;35483;50.828;3.228;2022-12-29T07:48:27;11.70;99.90
49579;DHT22;35483;50.828;3.228;2022-12-29T07:50:53;11.70;99.90
49579;DHT22;35483;50.828;3.228;2022-12-29T07:53:19;11.70;99.90
49579;DHT22;35483;50.828;3.228;2022-12-29T07:55:45;11.70;99.90
49579;DHT22;35483;50.828;3.228;2022-12-29T07:58:11;11.70;99.90
49579;DHT22;35483;50.828;3.228;2022-12-29T08:00:38;11.70;99.90
49579;DHT22;35483;50.828;3.228;2022-12-29T08:03:04;11.70;99.90
49579;DHT22;35483;50.828;3.228;2022-12-29T08:05:31;11.70;99.90
49579;DHT22;35483;50.828;3.228;2022-12-29T08:07:57;11.70;99.90
49579;DHT22;35483;50.828;3.228;2022-12-29T08:10:24;11.70;99.90
49579;DHT22;35483;50.828;3.228;2022-12-29T08:12:50;11.70;99.90
49579;DHT22;35483;50.828;3.228;2022-12-29T08:15:16;11.60;99.90
49579;DHT22;35483;50.828;3.228;2022-12-29T08:17:41;11.60;99.90
49579;DHT22;35483;50.828;3.228;2022-12-29T08:20:08;11.60;99.90
49579;DHT22;35483;50.828;3.228;2022-12-29T08:22:34;11.50;99.90
49579;DHT22;35483;50.828;3.228;2022-12-29T08:24:59;11.50;99.90
49579;DHT22;35483;50.828;3.228;2022-12-29T08:27:25;11.50;99.90
49579;DHT22;35483;50.828;3.228;2022-12-29T08:29:51;11.50;99.90
49579;DHT22;35483;50.828;3.228;2022-12-29T08:32:17;11.40;99.90
49579;DHT22;35483;50.828;3.228;2022-12-29T08:34:43;11.40;99.90
49579;DHT22;35483;50.828;3.228;2022-12-29T08:37:09;11.40;99.90
49579;DHT22;35483;50.828;3.228;2022-12-29T08:39:36;11.50;99.90
49579;DHT22;35483;50.828;3.228;2022-12-29T08:42:01;11.40;99.90
49579;DHT22;35483;50.828;3.228;2022-12-29T08:44:27;11.40;99.90
49579;DHT22;35483;50.828;3.228;2022-12-29T08:46:53;11.30;99.90
49579;DHT22;35483;50.828;3.228;2022-12-29T08:49:18;11.20;99.90
49579;DHT22;35483;50.828;3.228;2022-12-29T08:51:44;11.30;99.90
49579;DHT22;35483;50.828;3.228;2022-12-29T08:54:10;11.10;99.90
49579;DHT22;35483;50.828;3.228;2022-12-29T08:56:35;11.10;99.90
49579;DHT22;35483;50.828;3.228;2022-12-29T08:59:01;11.10;99.90
49579;DHT22;35483;50.828;3.228;2022-12-29T09:01:27;11.10;99.90
49579;DHT22;35483;50.828;3.228;2022-12-29T09:03:53;11.10;99.90
49579;DHT22;35483;50.828;3.228;2022-12-29T09:06:20;11.10;99.90
49579;DHT22;35483;50.828;3.228;2022-12-29T09:08:46;11.20;99.90
49579;DHT22;35483;50.828;3.228;2022-12-29T09:11:19;11.10;99.90
49579;DHT22;35483;50.828;3.228;2022-12-29T09:13:45;11.20;99.90
49579;DHT22;35483;50.828;3.228;2022-12-29T09:16:11;11.20;99.90
49579;DHT22;35483;50.828;3.228;2022-12-29T09:18:38;11.30;99.90
49579;DHT22;35483;50.828;3.228;2022-12-29T09:21:05;11.20;99.90
49579;DHT22;35483;50.828;3.228;2022-12-29T09:23:32;11.30;99.90
49579;DHT22;35483;50.828;3.228;2022-12-29T09:25:58;11.30;99.90
49579;DHT22;35483;50.828;3.228;2022-12-29T09:28:23;11.30;99.90
49579;DHT22;35483;50.828;3.228;2022-12-29T09:30:50;11.40;99.90
49579;DHT22;35483;50.828;3.228;2022-12-29T09:33:16;11.50;99.90
49579;DHT22;35483;50.828;3.228;2022-12-29T09:35:49;11.60;99.90
49579;DHT22;35483;50.828;3.228;2022-12-29T09:38:16;11.60;99.90
49579;DHT22;35483;50.828;3.228;2022-12-29T09:40:44;11.60;99.90
49579;DHT22;35483;50.828;3.228;2022-12-29T09:48:30;11.60;99.90
49579;DHT22;35483;50.828;3.228;2022-12-29T09:51:01;11.60;99.90
49579;DHT22;35483;50.828;3.228;2022-12-29T09:55:59;11.50;99.90
49579;DHT22;35483;50.828;3.228;2022-12-29T09:58:39;11.50;99.90
49579;DHT22;35483;50.828;3.228;2022-12-29T10:03:53;11.60;99.90
49579;DHT22;35483;50.828;3.228;2022-12-29T10:09:46;11.40;99.90
49579;DHT22;35483;50.828;3.228;2022-12-29T10:21:01;11.30;99.90
49579;DHT22;35483;50.828;3.228;2022-12-29T10:23:40;11.40;99.90
49579;DHT22;35483;50.828;3.228;2022-12-29T10:26:14;11.40;99.90
49579;DHT22;35483;50.828;3.228;2022-12-29T10:31:18;11.40;99.90
49579;DHT22;35483;50.828;3.228;2022-12-29T10:33:54;11.50;99.90
49579;DHT22;35483;50.828;3.228;2022-12-29T10:36:34;11.50;99.90
49579;DHT22;35483;50.828;3.228;2022-12-29T10:39:28;11.60;99.90
49579;DHT22;35483;50.828;3.228;2022-12-29T10:42:19;11.50;99.90
49579;DHT22;35483;50.828;3.228;2022-12-29T10:44:46;11.60;99.90
49579;DHT22;35483;50.828;3.228;2022-12-29T10:47:16;11.60;99.90
49579;DHT22;35483;50.828;3.228;2022-12-29T10:49:46;11.60;99.90
49579;DHT22;35483;50.828;3.228;2022-12-29T10:52:14;11.60;99.90
49579;DHT22;35483;50.828;3.228;2022-12-29T10:54:52;11.70;99.90
49579;DHT22;35483;50.828;3.228;2022-12-29T11:00:21;11.60;99.90
49579;DHT22;35483;50.828;3.228;2022-12-29T11:08:37;11.60;99.90
49579;DHT22;35483;50.828;3.228;2022-12-29T11:11:08;11.50;99.90
49579;DHT22;35483;50.828;3.228;2022-12-29T11:13:47;11.60;99.90
49579;DHT22;35483;50.828;3.228;2022-12-29T11:16:13;11.60;99.90
49579;DHT22;35483;50.828;3.228;2022-12-29T11:18:40;11.70;99.90
49579;DHT22;35483;50.828;3.228;2022-12-29T11:24:17;12.00;99.90
49579;DHT22;35483;50.828;3.228;2022-12-29T11:26:44;12.10;99.90
49579;DHT22;35483;50.828;3.228;2022-12-29T11:31:43;12.10;99.90
49579;DHT22;35483;50.828;3.228;2022-12-29T11:34:20;12.10;99.90
49579;DHT22;35483;50.828;3.228;2022-12-29T11:36:49;12.10;99.90
49579;DHT22;35483;50.828;3.228;2022-12-29T11:39:30;12.10;99.90
49579;DHT22;35483;50.828;3.228;2022-12-29T11:41:58;12.20;99.90
49579;DHT22;35483;50.828;3.228;2022-12-29T11:44:24;12.20;99.90
49579;DHT22;35483;50.828;3.228;2022-12-29T11:46:52;12.20;99.90
49579;DHT22;35483;50.828;3.228;2022-12-29T11:49:25;12.10;99.90
49579;DHT22;35483;50.828;3.228;2022-12-29T11:51:52;12.10;99.90
49579;DHT22;35483;50.828;3.228;2022-12-29T11:54:25;12.10;99.90
49579;DHT22;35483;50.828;3.228;2022-12-29T11:56:53;12.10;99.90
49579;DHT22;35483;50.828;3.228;2022-12-29T12:02:02;11.90;99.90
49579;DHT22;35483;50.828;3.228;2022-12-29T12:04:36;11.80;99.90
49579;DHT22;35483;50.828;3.228;2022-12-29T12:07:08;11.90;99.90
49579;DHT22;35483;50.828;3.228;2022-12-29T12:09:45;11.90;99.90
49579;DHT22;35483;50.828;3.228;2022-12-29T12:12:30;11.90;99.90
49579;DHT22;35483;50.828;3.228;2022-12-29T12:14:59;11.90;99.90
49579;DHT22;35483;50.828;3.228;2022-12-29T12:17:44;11.80;99.90
49579;DHT22;35483;50.828;3.228;2022-12-29T12:20:21;11.90;99.90
49579;DHT22;35483;50.828;3.228;2022-12-29T12:25:43;11.80;99.90
49579;DHT22;35483;50.828;3.228;2022-12-29T12:28:20;11.90;99.90
49579;DHT22;35483;50.828;3.228;2022-12-29T12:30:53;11.80;99.90
49579;DHT22;35483;50.828;3.228;2022-12-29T12:33:29;11.90;99.90
49579;DHT22;35483;50.828;3.228;2022-12-29T12:39:02;12.20;99.90
49579;DHT22;35483;50.828;3.228;2022-12-29T12:44:41;12.30;99.90
49579;DHT22;35483;50.828;3.228;2022-12-29T12:52:45;12.30;99.90
49579;DHT22;35483;50.828;3.228;2022-12-29T12:58:40;12.10;99.90
49579;DHT22;35483;50.828;3.228;2022-12-29T13:01:14;11.90;99.90
49579;DHT22;35483;50.828;3.228;2022-12-29T13:11:59;11.40;99.90
49579;DHT22;35483;50.828;3.228;2022-12-29T13:20:11;11.30;99.90
49579;DHT22;35483;50.828;3.228;2022-12-29T13:22:57;11.30;99.90
49579;DHT22;35483;50.828;3.228;2022-12-29T13:25:50;11.30;99.90
49579;DHT22;35483;50.828;3.228;2022-12-29T13:28:25;11.30;99.90
49579;DHT22;35483;50.828;3.228;2022-12-29T13:31:50;11.20;99.90
49579;DHT22;35483;50.828;3.228;2022-12-29T13:36:49;11.00;99.90
49579;DHT22;35483;50.828;3.228;2022-12-29T13:39:21;10.90;99.90
49579;DHT22;35483;50.828;3.228;2022-12-29T13:41:49;10.90;99.90
49579;DHT22;35483;50.828;3.228;2022-12-29T13:46:48;10.90;99.90
49579;DHT22;35483;50.828;3.228;2022-12-29T13:49:22;10.90;99.90
49579;DHT22;35483;50.828;3.228;2022-12-29T13:51:51;10.90;99.90
49579;DHT22;35483;50.828;3.228;2022-12-29T13:57:26;10.90;99.90
49579;DHT22;35483;50.828;3.228;2022-12-29T13:59:58;10.80;99.90
49579;DHT22;35483;50.828;3.228;2022-12-29T14:02:33;10.80;99.90
49579;DHT22;35483;50.828;3.228;2022-12-29T14:05:05;10.80;99.90
49579;DHT22;35483;50.828;3.228;2022-12-29T14:07:59;10.70;99.90
49579;DHT22;35483;50.828;3.228;2022-12-29T14:15:38;10.90;99.90
49579;DHT22;35483;50.828;3.228;2022-12-29T14:18:22;10.90;99.90
49579;DHT22;35483;50.828;3.228;2022-12-29T14:20:53;10.90;99.90
49579;DHT22;35483;50.828;3.228;2022-12-29T14:31:03;10.70;99.90
49579;DHT22;35483;50.828;3.228;2022-12-29T14:33:31;10.60;99.90
49579;DHT22;35483;50.828;3.228;2022-12-29T14:36:33;10.60;99.90
49579;DHT22;35483;50.828;3.228;2022-12-29T14:38:59;10.60;99.90
49579;DHT22;35483;50.828;3.228;2022-12-29T14:41:30;10.60;99.90
49579;DHT22;35483;50.828;3.228;2022-12-29T14:44:00;10.60;99.90
49579;DHT22;35483;50.828;3.228;2022-12-29T14:46:46;10.70;99.90
49579;DHT22;35483;50.828;3.228;2022-12-29T14:49:17;10.70;99.90
49579;DHT22;35483;50.828;3.228;2022-12-29T14:51:45;10.70;99.90
49579;DHT22;35483;50.828;3.228;2022-12-29T14:57:06;10.70;99.90
49579;DHT22;35483;50.828;3.228;2022-12-29T14:59:34;10.70;99.90
49579;DHT22;35483;50.828;3.228;2022-12-29T15:02:17;10.60;99.90
49579;DHT22;35483;50.828;3.228;2022-12-29T15:04:44;10.60;99.90
49579;DHT22;35483;50.828;3.228;2022-12-29T15:07:12;10.40;99.90
49579;DHT22;35483;50.828;3.228;2022-12-29T15:10:19;10.40;99.90
49579;DHT22;35483;50.828;3.228;2022-12-29T15:12:41;10.20;99.90
49579;DHT22;35483;50.828;3.228;2022-12-29T15:15:29;10.10;99.90
49579;DHT22;35483;50.828;3.228;2022-12-29T15:17:55;10.10;99.90
49579;DHT22;35483;50.828;3.228;2022-12-29T15:20:27;10.10;99.90
49579;DHT22;35483;50.828;3.228;2022-12-29T15:23:02;10.00;99.90
49579;DHT22;35483;50.828;3.228;2022-12-29T15:25:28;10.10;99.90
49579;DHT22;35483;50.828;3.228;2022-12-29T15:28:03;10.00;99.90
49579;DHT22;35483;50.828;3.228;2022-12-29T15:30:30;10.10;99.90
49579;DHT22;35483;50.828;3.228;2022-12-29T15:32:56;10.00;99.90
49579;DHT22;35483;50.828;3.228;2022-12-29T15:37:50;10.00;99.90
49579;DHT22;35483;50.828;3.228;2022-12-29T15:40:30;10.00;99.90
49579;DHT22;35483;50.828;3.228;2022-12-29T15:45:34;9.90;99.90
49579;DHT22;35483;50.828;3.228;2022-12-29T15:48:01;9.80;99.90
49579;DHT22;35483;50.828;3.228;2022-12-29T15:50:33;9.70;99.90
49579;DHT22;35483;50.828;3.228;2022-12-29T15:52:59;9.70;99.90
49579;DHT22;35483;50.828;3.228;2022-12-29T15:55:37;9.50;99.90
49579;DHT22;35483;50.828;3.228;2022-12-29T15:58:15;9.40;99.90
49579;DHT22;35483;50.828;3.228;2022-12-29T16:00:47;9.30;99.90
49579;DHT22;35483;50.828;3.228;2022-12-29T16:03:15;9.20;99.90
49579;DHT22;35483;50.828;3.228;2022-12-29T16:05:50;9.20;99.90
49579;DHT22;35483;50.828;3.228;2022-12-29T16:08:36;9.20;99.90
49579;DHT22;35483;50.828;3.228;2022-12-29T16:14:02;9.10;99.90
49579;DHT22;35483;50.828;3.228;2022-12-29T16:16:38;9.10;99.90
49579;DHT22;35483;50.828;3.228;2022-12-29T16:21:36;9.20;99.90
49579;DHT22;35483;50.828;3.228;2022-12-29T16:24:06;9.20;99.90
49579;DHT22;35483;50.828;3.228;2022-12-29T16:26:33;9.20;99.90
49579;DHT22;35483;50.828;3.228;2022-12-29T16:29:05;9.10;99.90
49579;DHT22;35483;50.828;3.228;2022-12-29T16:31:33;9.00;99.90
49579;DHT22;35483;50.828;3.228;2022-12-29T16:34:21;9.10;99.90
49579;DHT22;35483;50.828;3.228;2022-12-29T16:39:52;9.00;99.90
49579;DHT22;35483;50.828;3.228;2022-12-29T16:42:46;9.00;99.90
49579;DHT22;35483;50.828;3.228;2022-12-29T16:50:20;8.90;99.90
49579;DHT22;35483;50.828;3.228;2022-12-29T16:52:49;9.00;99.90
49579;DHT22;35483;50.828;3.228;2022-12-29T16:55:18;8.90;99.90
49579;DHT22;35483;50.828;3.228;2022-12-29T16:57:48;8.90;99.90
49579;DHT22;35483;50.828;3.228;2022-12-29T17:00:23;9.00;99.90
49579;DHT22;35483;50.828;3.228;2022-12-29T17:02:52;9.00;99.90
49579;DHT22;35483;50.828;3.228;2022-12-29T17:05:20;9.00;99.90
49579;DHT22;35483;50.828;3.228;2022-12-29T17:07:46;9.00;99.90
49579;DHT22;35483;50.828;3.228;2022-12-29T17:10:12;9.10;99.90
49579;DHT22;35483;50.828;3.228;2022-12-29T17:12:40;9.10;99.90
49579;DHT22;35483;50.828;3.228;2022-12-29T17:15:14;9.10;99.90
49579;DHT22;35483;50.828;3.228;2022-12-29T17:17:45;9.10;99.90
49579;DHT22;35483;50.828;3.228;2022-12-29T17:20:23;9.10;99.90
49579;DHT22;35483;50.828;3.228;2022-12-29T17:22:50;9.10;99.90
49579;DHT22;35483;50.828;3.228;2022-12-29T17:25:21;9.10;99.90
49579;DHT22;35483;50.828;3.228;2022-12-29T17:27:55;9.10;99.90
49579;DHT22;35483;50.828;3.228;2022-12-29T17:30:22;9.20;99.90
49579;DHT22;35483;50.828;3.228;2022-12-29T17:32:52;9.30;99.90
49579;DHT22;35483;50.828;3.228;2022-12-29T17:35:20;9.30;99.90
49579;DHT22;35483;50.828;3.228;2022-12-29T17:37:47;9.40;99.90
49579;DHT22;35483;50.828;3.228;2022-12-29T17:40:18;9.50;99.90
49579;DHT22;35483;50.828;3.228;2022-12-29T17:42:48;9.50;99.90
49579;DHT22;35483;50.828;3.228;2022-12-29T17:45:17;9.50;99.90
49579;DHT22;35483;50.828;3.228;2022-12-29T17:47:44;9.50;99.90
49579;DHT22;35483;50.828;3.228;2022-12-29T17:50:16;9.50;99.90
49579;DHT22;35483;50.828;3.228;2022-12-29T17:52:43;9.60;99.90
49579;DHT22;35483;50.828;3.228;2022-12-29T17:55:17;9.60;99.90
49579;DHT22;35483;50.828;3.228;2022-12-29T17:57:44;9.50;99.90
49579;DHT22;35483;50.828;3.228;2022-12-29T18:00:18;9.50;99.90
49579;DHT22;35483;50.828;3.228;2022-12-29T18:02:44;9.40;99.90
49579;DHT22;35483;50.828;3.228;2022-12-29T18:05:23;9.30;99.90
49579;DHT22;35483;50.828;3.228;2022-12-29T18:07:54;9.30;99.90
49579;DHT22;35483;50.828;3.228;2022-12-29T18:10:21;9.30;99.90
49579;DHT22;35483;50.828;3.228;2022-12-29T18:12:49;9.20;99.90
49579;DHT22;35483;50.828;3.228;2022-12-29T18:15:26;9.20;99.90